Data for 03/30/2006

Time Sea-Level Adjusted Pressure Absolute Pressure Temperature Relative Humidity Dew Point   
(mb) (inHg) (mb) (inHg) (C) (F) (%) (C) (F)
00:05 1009 29.8 838 24.75 0.9 33.7 97 0.5 32.8
00:10 1009 29.8 838 24.75 0.8 33.4 97 0.4 32.8
00:15 1009 29.8 838 24.75 0.7 33.2 98 0.4 32.6
00:20 1009 29.8 838 24.75 0.7 33.2 98 0.4 32.7
00:25 1009 29.8 838 24.75 0.6 33.1 98 0.4 32.7
00:30 1009 29.8 838 24.75 0.6 33.1 98 0.4 32.7
00:35 1009 29.8 838 24.75 0.6 33.1 98 0.3 32.6
00:40 1009 29.8 838 24.75 0.5 33 99 0.3 32.6
00:45 1009 29.8 838 24.75 0.5 33 98 0.3 32.6
00:50 1009 29.8 838 24.75 0.6 33 99 0.3 32.6
00:55 1009 29.8 838 24.75 0.5 33 99 0.3 32.6
01:00 1009 29.8 838 24.75 0.6 33.1 99 0.4 32.7
01:05 1009 29.8 838 24.75 0.7 33.2 98 0.4 32.8
01:10 1009 29.8 838 24.75 0.7 33.2 98 0.4 32.7
01:15 1009 29.8 838 24.75 0.7 33.2 98 0.4 32.8
01:20 1009 29.8 838 24.75 0.8 33.4 98 0.5 32.9
01:25 1009 29.8 838 24.75 0.8 33.5 98 0.5 32.9
01:30 1009 29.8 838 24.75 0.9 33.6 98 0.5 33
01:35 1009 29.8 839 24.78 0.9 33.7 97 0.5 33
01:40 1009 29.8 839 24.78 1 33.8 97 0.6 33
01:45 1009 29.8 839 24.78 1.1 34 97 0.6 33.2
01:50 1009 29.8 839 24.78 1.1 33.9 96 0.5 33
01:55 1009 29.8 839 24.78 1 33.7 97 0.5 32.9
02:00 1010 29.83 839 24.78 0.9 33.6 97 0.4 32.8
02:05 1010 29.83 839 24.78 0.9 33.6 97 0.5 32.8
02:10 1010 29.83 839 24.78 0.9 33.5 97 0.5 32.8
02:15 1010 29.83 839 24.78 0.8 33.5 97 0.4 32.8
02:20 1010 29.83 839 24.78 0.8 33.4 97 0.4 32.8
02:25 1010 29.83 839 24.78 0.8 33.4 97 0.4 32.7
02:30 1010 29.83 839 24.78 0.7 33.3 98 0.4 32.7
02:35 1010 29.83 839 24.78 0.7 33.2 97 0.3 32.5
02:40 1010 29.83 839 24.78 0.7 33.2 98 0.4 32.7
02:45 1010 29.83 839 24.78 0.7 33.2 98 0.4 32.7
02:50 1010 29.83 839 24.78 0.7 33.3 98 0.4 32.8
02:55 1010 29.83 839 24.78 0.7 33.2 98 0.4 32.7
03:00 1010 29.83 839 24.78 0.6 33.2 98 0.4 32.6
03:05 1010 29.83 839 24.78 0.7 33.2 98 0.4 32.7
03:10 1010 29.83 839 24.78 0.8 33.4 98 0.5 32.8
03:15 1010 29.83 839 24.78 0.8 33.4 98 0.5 32.8
03:20 1010 29.83 840 24.81 0.8 33.5 98 0.5 32.9
03:25 1010 29.83 840 24.81 0.8 33.4 97 0.4 32.7
03:30 1010 29.83 840 24.81 0.8 33.5 98 0.5 32.9
03:35 1011 29.85 840 24.81 0.9 33.6 97 0.5 32.9
03:40 1011 29.85 840 24.81 0.8 33.5 97 0.4 32.7
03:45 1011 29.85 840 24.81 0.9 33.7 97 0.5 32.9
03:50 1011 29.85 840 24.81 0.9 33.7 97 0.4 32.8
03:55 1011 29.85 840 24.81 0.9 33.6 96 0.4 32.7
04:00 1011 29.85 840 24.81 0.9 33.6 96 0.4 32.7
04:05 1011 29.85 840 24.81 0.9 33.6 96 0.3 32.5
04:10 1011 29.85 840 24.81 0.7 33.3 97 0.3 32.5
04:15 1011 29.85 840 24.81 0.7 33.2 97 0.2 32.4
04:20 1011 29.85 840 24.81 0.7 33.2 97 0.3 32.5
04:25 1011 29.85 840 24.81 0.7 33.3 97 0.3 32.5
04:30 1011 29.85 840 24.81 0.9 33.5 97 0.4 32.6
04:35 1011 29.85 840 24.81 0.8 33.5 96 0.3 32.6
04:40 1011 29.85 841 24.83 0.7 33.3 97 0.3 32.5
04:45 1011 29.85 841 24.83 0.7 33.3 97 0.2 32.4
04:50 1011 29.85 841 24.83 0.8 33.4 97 0.3 32.6
04:55 1012 29.88 841 24.83 0.8 33.4 97 0.3 32.5
05:00 1012 29.88 841 24.83 0.8 33.4 97 0.3 32.6
05:05 1012 29.88 841 24.83 0.7 33.3 97 0.3 32.5
05:10 1012 29.88 841 24.83 0.8 33.4 97 0.3 32.6
05:15 1012 29.88 841 24.83 0.8 33.4 97 0.3 32.6
05:20 1012 29.88 841 24.83 0.8 33.4 97 0.3 32.6
05:25 1012 29.88 841 24.83 0.7 33.3 97 0.3 32.6
05:30 1012 29.88 841 24.83 0.7 33.3 97 0.3 32.5
05:35 1012 29.88 841 24.83 0.8 33.4 97 0.3 32.6
05:40 1012 29.88 841 24.83 0.8 33.5 97 0.4 32.7
05:45 1012 29.88 841 24.83 0.8 33.4 97 0.3 32.6
05:50 1012 29.88 841 24.83 0.8 33.5 97 0.4 32.7
05:55 1012 29.88 841 24.83 0.9 33.6 97 0.4 32.7
06:00 1012 29.88 841 24.83 1.1 34 96 0.5 33
06:05 1012 29.88 841 24.83 1.2 34.2 95 0.6 33
06:10 1012 29.88 842 24.86 1.3 34.3 95 0.5 33
06:15 1012 29.88 842 24.86 1.3 34.3 95 0.5 32.9
06:20 1012 29.88 842 24.86 1.4 34.4 94 0.5 32.9
06:25 1012 29.88 842 24.86 1.3 34.4 94 0.5 32.8
06:30 1013 29.91 842 24.86 1.3 34.3 95 0.5 32.9
06:35 1013 29.91 842 24.86 1.3 34.3 94 0.5 32.8
06:40 1013 29.91 842 24.86 1.4 34.5 94 0.6 33
06:45 1013 29.91 842 24.86 1.5 34.6 94 0.6 33.1
06:50 1013 29.91 842 24.86 1.5 34.6 94 0.6 33.1
06:55 1013 29.91 842 24.86 1.4 34.5 95 0.6 33.1
07:00 1013 29.91 842 24.86 1.4 34.6 95 0.7 33.2
07:05 1013 29.91 842 24.86 1.4 34.6 95 0.7 33.2
07:10 1013 29.91 842 24.86 1.4 34.5 95 0.7 33.2
07:15 1013 29.91 842 24.86 1.5 34.7 94 0.6 33.1
07:20 1013 29.91 842 24.86 1.6 34.9 94 0.7 33.3
07:25 1013 29.91 842 24.86 1.9 35.4 92 0.7 33.2
07:30 1013 29.91 843 24.89 1.9 35.5 92 0.7 33.3
07:35 1013 29.91 843 24.89 2 35.7 91 0.7 33.3
07:40 1013 29.91 843 24.89 2 35.6 90 0.6 33
07:45 1014 29.94 843 24.89 2.1 35.8 91 0.8 33.4
07:50 1014 29.94 843 24.89 2.3 36.2 89 0.8 33.4
07:55 1014 29.94 843 24.89 2.4 36.3 89 0.8 33.4
08:00 1014 29.94 843 24.89 2.4 36.4 89 0.9 33.6
08:05 1014 29.94 843 24.89 2.5 36.5 90 1 33.7
08:10 1014 29.94 843 24.89 2.4 36.3 91 1.1 33.9
08:15 1014 29.94 843 24.89 2.4 36.3 91 1.1 33.9
08:20 1014 29.94 843 24.89 2.5 36.4 88 0.7 33.3
08:25 1014 29.94 843 24.89 2.6 36.7 88 0.8 33.4
08:30 1014 29.94 843 24.89 2.6 36.8 87 0.7 33.2
08:35 1014 29.94 843 24.89 2.8 37 86 0.7 33.3
08:40 1014 29.94 843 24.89 2.9 37.3 85 0.7 33.2
08:45 1014 29.94 844 24.92 3 37.4 83 0.4 32.7
08:50 1014 29.94 844 24.92 3 37.3 84 0.4 32.8
08:55 1014 29.94 844 24.92 3.1 37.5 83 0.4 32.7
09:00 1014 29.94 844 24.92 3.1 37.6 82 0.4 32.7
09:05 1015 29.97 844 24.92 3.1 37.6 84 0.7 33.2
09:10 1015 29.97 844 24.92 3.1 37.6 83 0.6 33.1
09:15 1015 29.97 844 24.92 3.2 37.7 83 0.6 33.1
09:20 1015 29.97 844 24.92 3.3 38 83 0.6 33.2
09:25 1015 29.97 844 24.92 3.4 38.1 83 0.7 33.3
09:30 1015 29.97 844 24.92 3.5 38.4 82 0.8 33.4
09:35 1015 29.97 844 24.92 3.8 38.8 81 0.8 33.4
09:40 1015 29.97 844 24.92 4 39.1 80 0.9 33.6
09:45 1015 29.97 844 24.92 4.1 39.4 80 0.9 33.6
09:50 1015 29.97 844 24.92 4.2 39.5 78 0.8 33.4
09:55 1015 29.97 844 24.92 4.4 39.9 79 1.1 34
10:00 1015 29.97 844 24.92 4.5 40.2 80 1.4 34.6
10:05 1015 29.97 844 24.92 4.7 40.4 82 1.8 35.2
10:10 1015 29.97 844 24.92 4.6 40.2 82 1.8 35.2
10:15 1015 29.97 844 24.92 4.6 40.4 82 1.9 35.3
10:20 1015 29.97 844 24.92 4.7 40.5 82 1.9 35.5
10:25 1015 29.97 844 24.92 4.6 40.4 80 1.5 34.8
10:30 1015 29.97 845 24.95 4.7 40.5 80 1.6 34.9
10:35 1015 29.97 845 24.95 4.9 40.8 79 1.6 34.8
10:40 1015 29.97 845 24.95 5 40.9 80 1.9 35.4
10:45 1015 29.97 845 24.95 5.1 41.3 79 1.8 35.3
10:50 1015 29.97 845 24.95 5.1 41.2 77 1.4 34.5
10:55 1015 29.97 845 24.95 5.1 41.2 77 1.4 34.5
11:00 1015 29.97 845 24.95 5.2 41.3 75 1 33.9
11:05 1015 29.97 845 24.95 5.1 41.3 73 0.8 33.4
11:10 1015 29.97 845 24.95 5 41 70 -0.1 31.9
11:15 1015 29.97 845 24.95 5.2 41.3 72 0.6 33
11:20 1015 29.97 845 24.95 5 41 70 0 32.1
11:25 1015 29.97 845 24.95 5.2 41.4 70 0.3 32.6
11:30 1015 29.97 845 24.95 5.8 42.5 66 0 32.1
11:35 1015 29.97 845 24.95 5.8 42.5 65 -0.2 31.7
11:40 1015 29.97 845 24.95 6.1 43.1 65 0.1 32.3
11:45 1015 29.97 844 24.92 6 42.9 72 1.5 34.6
11:50 1015 29.97 844 24.92 6.4 43.6 68 0.9 33.7
11:55 1015 29.97 844 24.92 7 44.6 63 0.5 33
12:00 1015 29.97 844 24.92 6.5 43.8 65 0.5 33
12:05 1015 29.97 844 24.92 6.2 43.1 65 0.1 32.1
12:10 1015 29.97 844 24.92 5.7 42.2 71 0.8 33.5
12:15 1015 29.97 844 24.92 4.9 40.8 72 0.2 32.4
12:20 1015 29.97 844 24.92 4.9 40.8 70 -0 31.9
12:25 1015 29.97 844 24.92 5.2 41.4 70 0.2 32.3
12:30 1015 29.97 844 24.92 4.7 40.5 72 0 32.1
12:35 1015 29.97 844 24.92 4.8 40.6 69 -0.4 31.3
12:40 1015 29.97 844 24.92 5.1 41.2 69 -0.2 31.7
12:45 1015 29.97 845 24.95 5.4 41.8 68 0.1 32.1
12:50 1015 29.97 845 24.95 5.4 41.7 67 -0.2 31.6
12:55 1015 29.97 845 24.95 5.5 42 66 -0.2 31.6
13:00 1015 29.97 845 24.95 5.8 42.4 65 -0.3 31.5
13:05 1015 29.97 845 24.95 5.9 42.6 65 -0.1 31.8
13:10 1015 29.97 845 24.95 5.9 42.5 65 -0.3 31.5
13:15 1015 29.97 845 24.95 6.1 43 63 -0.4 31.3
13:20 1015 29.97 845 24.95 6 42.9 62 -0.6 30.9
13:25 1015 29.97 845 24.95 6.2 43.1 62 -0.6 30.9
13:30 1015 29.97 844 24.92 6.3 43.3 61 -0.7 30.7
13:35 1015 29.97 844 24.92 6.4 43.4 60 -0.8 30.5
13:40 1015 29.97 844 24.92 6.3 43.4 59 -1.2 29.9
13:45 1015 29.97 844 24.92 6.6 43.9 59 -0.9 30.4
13:50 1015 29.97 844 24.92 7.3 45.1 54 -1.4 29.5
13:55 1015 29.97 844 24.92 7.4 45.3 53 -1.6 29.1
14:00 1015 29.97 844 24.92 7.6 45.7 54 -1 30.2
14:05 1015 29.97 844 24.92 7.5 45.5 53 -1.4 29.5
14:10 1015 29.97 844 24.92 8.1 46.6 50 -1.6 29.2
14:15 1015 29.97 844 24.92 7.5 45.5 53 -1.4 29.6
14:20 1015 29.97 844 24.92 7 44.6 54 -1.6 29.1
14:25 1015 29.97 844 24.92 6.8 44.2 54 -1.9 28.6
14:30 1015 29.97 844 24.92 7.1 44.8 54 -1.4 29.4
14:35 1015 29.97 844 24.92 7.4 45.4 53 -1.5 29.2
14:40 1015 29.97 844 24.92 8 46.4 52 -1.2 29.8
14:45 1015 29.97 844 24.92 7.3 45.1 54 -1.4 29.5
14:50 1015 29.97 844 24.92 8.1 46.6 52 -1.2 29.9
14:55 1015 29.97 844 24.92 7.8 46 51 -1.6 29.1
15:00 1015 29.97 844 24.92 7.6 45.7 51 -1.9 28.6
15:05 1015 29.97 844 24.92 8 46.3 52 -1.3 29.6
15:10 1015 29.97 844 24.92 8 46.5 49 -2.1 28.3
15:15 1015 29.97 844 24.92 7.8 46 49 -2.2 28.1
15:20 1015 29.97 844 24.92 7.8 46 47 -2.8 26.9
15:25 1015 29.97 844 24.92 7.8 46 45 -3.3 26
15:30 1015 29.97 844 24.92 7.7 45.9 47 -2.8 27
15:35 1015 29.97 844 24.92 8.2 46.7 46 -2.7 27.2
15:40 1015 29.97 844 24.92 8.9 48.1 45 -2.4 27.6
15:45 1015 29.97 844 24.92 8.8 47.9 47 -2 28.5
15:50 1015 29.97 844 24.92 9 48.2 44 -2.7 27.2
15:55 1015 29.97 844 24.92 8.8 47.9 43 -3.1 26.5
16:00 1015 29.97 844 24.92 8.8 47.8 44 -2.7 27.2
16:05 1015 29.97 844 24.92 8.8 47.9 41 -3.7 25.3
16:10 1015 29.97 844 24.92 8.4 47.1 44 -3 26.5
16:15 1015 29.97 844 24.92 8.3 47 44 -3.1 26.5
16:20 1015 29.97 844 24.92 8.4 47.1 45 -2.9 26.7
16:25 1015 29.97 844 24.92 7.9 46.2 46 -3.1 26.5
16:30 1015 29.97 844 24.92 7.7 45.9 45 -3.5 25.8
16:35 1015 29.97 844 24.92 7.7 45.9 45 -3.5 25.8
16:40 1015 29.97 844 24.92 7.6 45.6 44 -3.9 24.9
16:45 1015 29.97 844 24.92 7.7 45.8 43 -4.2 24.4
16:50 1015 29.97 844 24.92 7.7 45.9 42 -4.4 24.2
16:55 1015 29.97 844 24.92 8 46.4 42 -4.1 24.6
17:00 1015 29.97 844 24.92 8.2 46.7 42 -4 24.9
17:05 1015 29.97 844 24.92 8.4 47 41 -4 24.8
17:10 1015 29.97 844 24.92 8.4 47.1 42 -3.9 25.1
17:15 1015 29.97 844 24.92 8.1 46.6 42 -4.1 24.6
17:20 1015 29.97 844 24.92 7.9 46.2 41 -4.5 23.8
17:25 1015 29.97 844 24.92 7.9 46.3 41 -4.4 24
17:30 1015 29.97 844 24.92 8.1 46.5 42 -4.1 24.6
17:35 1015 29.97 844 24.92 8 46.3 42 -4.1 24.6
17:40 1015 29.97 844 24.92 7.6 45.7 43 -4.3 24.3
17:45 1015 29.97 844 24.92 7.5 45.6 41 -4.9 23.2
17:50 1015 29.97 844 24.92 7.3 45.2 44 -4.1 24.7
17:55 1015 29.97 844 24.92 7.3 45.1 44 -4.1 24.7
18:00 1015 29.97 844 24.92 7.2 45 44 -4.2 24.4
18:05 1015 29.97 844 24.92 7.2 44.9 44 -4.4 24.1
18:10 1015 29.97 844 24.92 7.1 44.8 44 -4.4 24.1
18:15 1015 29.97 844 24.92 7 44.6 44 -4.3 24.2
18:20 1015 29.97 844 24.92 6.9 44.4 45 -4.1 24.6
18:25 1015 29.97 844 24.92 6.8 44.2 46 -4.1 24.5
18:30 1015 29.97 844 24.92 6.6 44 47 -4 24.8
18:35 1015 29.97 844 24.92 6.5 43.7 48 -3.7 25.4
18:40 1015 29.97 844 24.92 6.2 43.2 52 -2.9 26.7
18:45 1015 29.97 844 24.92 6 42.9 53 -2.9 26.9
18:50 1015 29.97 844 24.92 5.9 42.6 53 -2.9 26.8
18:55 1015 29.97 844 24.92 5.8 42.5 55 -2.5 27.4
19:00 1015 29.97 844 24.92 5.5 41.8 58 -2.1 28.3
19:05 1015 29.97 844 24.92 5.1 41.1 62 -1.6 29.2
19:10 1015 29.97 844 24.92 4.7 40.5 67 -0.9 30.5
19:15 1015 29.97 844 24.92 4.2 39.6 72 -0.4 31.2
19:20 1015 29.97 844 24.92 4 39.1 73 -0.5 31.1
19:25 1015 29.97 844 24.92 3.8 38.9 70 -1.2 29.8
19:30 1015 29.97 844 24.92 3.8 38.8 68 -1.6 29.2
19:35 1015 29.97 845 24.95 3.8 38.9 67 -1.6 29
19:40 1015 29.97 845 24.95 3.5 38.3 73 -0.9 30.4
19:45 1015 29.97 845 24.95 3.2 37.8 77 -0.5 31.1
19:50 1016 30 845 24.95 3.1 37.5 78 -0.4 31.2
19:55 1016 30 845 24.95 3.1 37.7 78 -0.4 31.3
20:00 1016 30 845 24.95 3.1 37.5 77 -0.6 30.9
20:05 1016 30 845 24.95 3 37.5 76 -0.7 30.7
20:10 1016 30 845 24.95 3.1 37.5 74 -1.1 30
20:15 1016 30 845 24.95 3 37.4 75 -1.1 30.1
20:20 1016 30 845 24.95 2.7 36.8 77 -0.9 30.3
20:25 1016 30 845 24.95 2.5 36.5 77 -1.1 30.1
20:30 1016 30 845 24.95 2.5 36.5 76 -1.3 29.6
20:35 1016 30 845 24.95 2.5 36.5 77 -1.2 29.9
20:40 1016 30 845 24.95 2.2 36 78 -1.3 29.7
20:45 1016 30 845 24.95 2.4 36.3 76 -1.4 29.5
20:50 1016 30 845 24.95 2.5 36.5 75 -1.4 29.5
20:55 1016 30 845 24.95 2.5 36.6 75 -1.4 29.5
21:00 1016 30 845 24.95 2.6 36.6 75 -1.4 29.5
21:05 1016 30 845 24.95 2.5 36.5 75 -1.5 29.3
21:10 1016 30 845 24.95 2.4 36.4 75 -1.6 29.2
21:15 1016 30 845 24.95 2.4 36.3 75 -1.6 29.2
21:20 1016 30 845 24.95 2.3 36.1 76 -1.6 29.2
21:25 1016 30 845 24.95 2.2 35.9 76 -1.7 29
21:30 1016 30 845 24.95 2.1 35.8 76 -1.7 29
21:35 1016 30 845 24.95 2.1 35.8 76 -1.7 29
21:40 1016 30 845 24.95 2.1 35.7 76 -1.7 28.9
21:45 1016 30 845 24.95 2.1 35.7 75 -1.8 28.7
21:50 1016 30 845 24.95 2 35.6 76 -1.8 28.8
21:55 1015 29.97 845 24.95 2 35.6 75 -1.9 28.5
22:00 1015 29.97 844 24.92 2.2 35.9 73 -2.1 28.2
22:05 1015 29.97 845 24.95 2.3 36.1 74 -2 28.4
22:10 1015 29.97 845 24.95 2.2 35.9 73 -2.1 28.2
22:15 1015 29.97 844 24.92 2.1 35.8 73 -2.2 28.1
22:20 1015 29.97 844 24.92 2.2 36 73 -2.2 28.1
22:25 1015 29.97 844 24.92 2.3 36.1 73 -2.1 28.2
22:30 1015 29.97 844 24.92 2 35.6 77 -1.6 29.1
22:35 1015 29.97 844 24.92 1.8 35.2 76 -2 28.5
22:40 1015 29.97 844 24.92 1.9 35.3 75 -2.2 28.1
22:45 1015 29.97 844 24.92 2.1 35.8 72 -2.4 27.7
22:50 1015 29.97 844 24.92 2.4 36.3 72 -2.2 28.1
22:55 1015 29.97 844 24.92 2.3 36.1 73 -2.1 28.2
23:00 1015 29.97 844 24.92 2.2 36 73 -2.2 28.1
23:05 1015 29.97 844 24.92 2.2 35.9 72 -2.3 27.9
23:10 1015 29.97 844 24.92 2.4 36.3 70 -2.5 27.4
23:15 1015 29.97 844 24.92 2.5 36.5 70 -2.4 27.6
23:20 1015 29.97 845 24.95 2.5 36.4 70 -2.5 27.5
23:25 1015 29.97 844 24.92 2.6 36.6 68 -2.7 27.1
23:30 1015 29.97 844 24.92 2.7 36.9 68 -2.7 27.2
23:35 1015 29.97 844 24.92 2.7 36.8 68 -2.6 27.4
23:40 1015 29.97 845 24.95 2.5 36.4 69 -2.7 27.2
23:45 1015 29.97 845 24.95 2.4 36.3 70 -2.4 27.6
23:50 1015 29.97 844 24.92 2.2 35.9 71 -2.5 27.4
23:55 1015 29.97 844 24.92 2.1 35.9 72 -2.4 27.6
24:00 1015 29.97 844 24.92 2.2 35.9 71 -2.5 27.5